sensor_id;sensor_type;location;lat;lon;timestamp;pressure;altitude;pressure_sealevel;temperature;humidity
5062;BME280;2351;50.812;12.872;2023-12-04T00:00:52;98313.72;;;-9.52;100.00
5062;BME280;2351;50.812;12.872;2023-12-04T00:03:23;98314.59;;;-9.51;100.00
5062;BME280;2351;50.812;12.872;2023-12-04T00:05:56;98303.47;;;-9.52;100.00
5062;BME280;2351;50.812;12.872;2023-12-04T00:08:28;98298.34;;;-9.54;100.00
5062;BME280;2351;50.812;12.872;2023-12-04T00:11:00;98300.91;;;-9.54;100.00
5062;BME280;2351;50.812;12.872;2023-12-04T00:13:32;98300.91;;;-9.55;100.00
5062;BME280;2351;50.812;12.872;2023-12-04T00:16:04;98306.88;;;-9.56;100.00
5062;BME280;2351;50.812;12.872;2023-12-04T00:18:36;98306.03;;;-9.60;100.00
5062;BME280;2351;50.812;12.872;2023-12-04T00:21:09;98307.75;;;-9.60;100.00
5062;BME280;2351;50.812;12.872;2023-12-04T00:23:41;98299.19;;;-9.61;100.00
5062;BME280;2351;50.812;12.872;2023-12-04T00:26:12;98304.31;;;-9.61;100.00
5062;BME280;2351;50.812;12.872;2023-12-04T00:28:44;98302.63;;;-9.62;100.00
5062;BME280;2351;50.812;12.872;2023-12-04T00:31:16;98312.88;;;-9.63;100.00
5062;BME280;2351;50.812;12.872;2023-12-04T00:33:48;98303.47;;;-9.66;100.00
5062;BME280;2351;50.812;12.872;2023-12-04T00:36:21;98301.75;;;-9.72;100.00
5062;BME280;2351;50.812;12.872;2023-12-04T00:38:52;98301.75;;;-9.78;100.00
5062;BME280;2351;50.812;12.872;2023-12-04T00:41:24;98300.03;;;-9.76;100.00
5062;BME280;2351;50.812;12.872;2023-12-04T00:43:56;98302.59;;;-9.77;100.00
5062;BME280;2351;50.812;12.872;2023-12-04T00:46:27;98304.31;;;-9.76;100.00
5062;BME280;2351;50.812;12.872;2023-12-04T00:48:59;98316.28;;;-9.75;100.00
5062;BME280;2351;50.812;12.872;2023-12-04T00:51:38;98316.28;;;-9.71;100.00
5062;BME280;2351;50.812;12.872;2023-12-04T00:54:10;98307.75;;;-9.70;100.00
5062;BME280;2351;50.812;12.872;2023-12-04T00:56:42;98304.31;;;-9.64;100.00
5062;BME280;2351;50.812;12.872;2023-12-04T00:59:13;98307.72;;;-9.57;100.00
5062;BME280;2351;50.812;12.872;2023-12-04T01:01:45;98299.19;;;-9.53;100.00
5062;BME280;2351;50.812;12.872;2023-12-04T01:04:17;98295.78;;;-9.44;100.00
5062;BME280;2351;50.812;12.872;2023-12-04T01:06:51;98292.34;;;-9.35;100.00
5062;BME280;2351;50.812;12.872;2023-12-04T01:09:23;98297.47;;;-9.29;100.00
5062;BME280;2351;50.812;12.872;2023-12-04T01:11:55;98291.50;;;-9.22;100.00
5062;BME280;2351;50.812;12.872;2023-12-04T01:14:26;98286.38;;;-9.19;100.00
5062;BME280;2351;50.812;12.872;2023-12-04T01:16:58;98286.38;;;-9.16;100.00
5062;BME280;2351;50.812;12.872;2023-12-04T01:19:30;98285.50;;;-9.16;100.00
5062;BME280;2351;50.812;12.872;2023-12-04T01:22:03;98288.06;;;-9.13;100.00
5062;BME280;2351;50.812;12.872;2023-12-04T01:24:35;98283.78;;;-9.11;100.00
5062;BME280;2351;50.812;12.872;2023-12-04T01:27:07;98276.09;;;-9.06;100.00
5062;BME280;2351;50.812;12.872;2023-12-04T01:29:39;98280.34;;;-9.04;100.00
5062;BME280;2351;50.812;12.872;2023-12-04T01:32:10;98270.94;;;-9.00;100.00
5062;BME280;2351;50.812;12.872;2023-12-04T01:34:42;98272.66;;;-8.99;100.00
5062;BME280;2351;50.812;12.872;2023-12-04T01:37:15;98274.38;;;-8.98;100.00
5062;BME280;2351;50.812;12.872;2023-12-04T01:39:47;98275.19;;;-8.98;100.00
5062;BME280;2351;50.812;12.872;2023-12-04T01:42:18;98269.25;;;-8.98;100.00
5062;BME280;2351;50.812;12.872;2023-12-04T01:44:50;98256.41;;;-8.98;100.00
5062;BME280;2351;50.812;12.872;2023-12-04T01:47:22;98252.97;;;-8.99;100.00
5062;BME280;2351;50.812;12.872;2023-12-04T01:49:54;98262.38;;;-8.98;100.00
5062;BME280;2351;50.812;12.872;2023-12-04T01:52:27;98250.41;;;-8.97;100.00
5062;BME280;2351;50.812;12.872;2023-12-04T01:54:59;98248.72;;;-8.98;100.00
5062;BME280;2351;50.812;12.872;2023-12-04T01:57:30;98252.13;;;-8.99;100.00
5062;BME280;2351;50.812;12.872;2023-12-04T02:00:03;98241.88;;;-9.02;100.00
5062;BME280;2351;50.812;12.872;2023-12-04T02:02:35;98230.78;;;-9.12;100.00
5062;BME280;2351;50.812;12.872;2023-12-04T02:05:08;98228.22;;;-9.15;100.00
5062;BME280;2351;50.812;12.872;2023-12-04T02:07:41;98229.06;;;-9.16;100.00
5062;BME280;2351;50.812;12.872;2023-12-04T02:10:13;98228.22;;;-9.21;100.00
5062;BME280;2351;50.812;12.872;2023-12-04T02:12:45;98223.97;;;-9.26;100.00
5062;BME280;2351;50.812;12.872;2023-12-04T02:15:17;98223.13;;;-9.29;100.00
5062;BME280;2351;50.812;12.872;2023-12-04T02:17:49;98220.56;;;-9.32;100.00
5062;BME280;2351;50.812;12.872;2023-12-04T02:20:30;98213.72;;;-9.36;100.00
5062;BME280;2351;50.812;12.872;2023-12-04T02:23:04;98208.63;;;-9.43;100.00
5062;BME280;2351;50.812;12.872;2023-12-04T02:25:37;98204.34;;;-9.47;100.00
5062;BME280;2351;50.812;12.872;2023-12-04T02:28:12;98200.09;;;-9.52;100.00
5062;BME280;2351;50.812;12.872;2023-12-04T02:30:46;98189.84;;;-9.57;100.00
5062;BME280;2351;50.812;12.872;2023-12-04T02:33:23;98180.44;;;-9.63;100.00
5062;BME280;2351;50.812;12.872;2023-12-04T02:35:57;98178.75;;;-9.67;100.00
5062;BME280;2351;50.812;12.872;2023-12-04T02:38:29;98182.16;;;-9.70;100.00
5062;BME280;2351;50.812;12.872;2023-12-04T02:41:03;98168.53;;;-9.73;100.00
5062;BME280;2351;50.812;12.872;2023-12-04T02:43:34;98179.63;;;-9.77;100.00
5062;BME280;2351;50.812;12.872;2023-12-04T02:46:06;98179.63;;;-9.82;100.00
5062;BME280;2351;50.812;12.872;2023-12-04T02:48:38;98177.06;;;-9.85;100.00
5062;BME280;2351;50.812;12.872;2023-12-04T02:51:10;98175.34;;;-9.86;100.00
5062;BME280;2351;50.812;12.872;2023-12-04T02:53:42;98168.50;;;-9.89;100.00
5062;BME280;2351;50.812;12.872;2023-12-04T02:56:15;98160.81;;;-9.92;100.00
5062;BME280;2351;50.812;12.872;2023-12-04T02:58:46;98171.06;;;-9.96;100.00
5062;BME280;2351;50.812;12.872;2023-12-04T03:01:18;98164.25;;;-9.99;100.00
5062;BME280;2351;50.812;12.872;2023-12-04T03:03:50;98162.53;;;-9.99;100.00
5062;BME280;2351;50.812;12.872;2023-12-04T03:06:21;98160.81;;;-10.00;100.00
5062;BME280;2351;50.812;12.872;2023-12-04T03:08:53;98157.41;;;-10.02;100.00
5062;BME280;2351;50.812;12.872;2023-12-04T03:11:26;98154.00;;;-10.04;100.00
5062;BME280;2351;50.812;12.872;2023-12-04T03:14:00;98154.88;;;-10.08;100.00
5062;BME280;2351;50.812;12.872;2023-12-04T03:16:32;98155.72;;;-10.10;100.00
5062;BME280;2351;50.812;12.872;2023-12-04T03:19:03;98159.13;;;-10.13;100.00
5062;BME280;2351;50.812;12.872;2023-12-04T03:21:35;98154.84;;;-10.23;100.00
5062;BME280;2351;50.812;12.872;2023-12-04T03:24:07;98152.31;;;-10.22;100.00
5062;BME280;2351;50.812;12.872;2023-12-04T03:26:40;98150.59;;;-10.23;100.00
5062;BME280;2351;50.812;12.872;2023-12-04T03:29:12;98153.16;;;-10.29;100.00
5062;BME280;2351;50.812;12.872;2023-12-04T03:31:44;98148.88;;;-10.29;100.00
5062;BME280;2351;50.812;12.872;2023-12-04T03:34:15;98154.88;;;-10.30;100.00
5062;BME280;2351;50.812;12.872;2023-12-04T03:36:47;98159.13;;;-10.30;100.00
5062;BME280;2351;50.812;12.872;2023-12-04T03:39:19;98158.28;;;-10.34;100.00
5062;BME280;2351;50.812;12.872;2023-12-04T03:41:52;98159.13;;;-10.35;100.00
5062;BME280;2351;50.812;12.872;2023-12-04T03:44:24;98148.03;;;-10.37;100.00
5062;BME280;2351;50.812;12.872;2023-12-04T03:46:56;98145.47;;;-10.34;100.00
5062;BME280;2351;50.812;12.872;2023-12-04T03:49:28;98139.50;;;-10.30;100.00
5062;BME280;2351;50.812;12.872;2023-12-04T03:52:00;98135.22;;;-10.24;100.00
5062;BME280;2351;50.812;12.872;2023-12-04T03:54:31;98128.41;;;-10.24;100.00
5062;BME280;2351;50.812;12.872;2023-12-04T03:57:05;98127.56;;;-10.27;100.00
5062;BME280;2351;50.812;12.872;2023-12-04T03:59:36;98119.00;;;-10.23;100.00
5062;BME280;2351;50.812;12.872;2023-12-04T04:02:08;98124.16;;;-10.16;100.00
5062;BME280;2351;50.812;12.872;2023-12-04T04:04:40;98124.13;;;-10.11;100.00
5062;BME280;2351;50.812;12.872;2023-12-04T04:07:11;98120.72;;;-10.10;100.00
5062;BME280;2351;50.812;12.872;2023-12-04T04:09:43;98119.00;;;-10.02;100.00
5062;BME280;2351;50.812;12.872;2023-12-04T04:12:16;98123.25;;;-9.91;100.00
5062;BME280;2351;50.812;12.872;2023-12-04T04:14:48;98126.66;;;-9.81;100.00
5062;BME280;2351;50.812;12.872;2023-12-04T04:17:20;98118.13;;;-9.71;100.00
5062;BME280;2351;50.812;12.872;2023-12-04T04:19:51;98118.97;;;-9.61;100.00
5062;BME280;2351;50.812;12.872;2023-12-04T04:22:23;98120.63;;;-9.51;100.00
5062;BME280;2351;50.812;12.872;2023-12-04T04:24:55;98112.91;;;-9.46;100.00
5062;BME280;2351;50.812;12.872;2023-12-04T04:27:29;98110.31;;;-9.37;100.00
5062;BME280;2351;50.812;12.872;2023-12-04T04:30:00;98102.59;;;-9.29;100.00
5062;BME280;2351;50.812;12.872;2023-12-04T04:32:32;98106.84;;;-9.22;100.00
5062;BME280;2351;50.812;12.872;2023-12-04T04:35:04;98103.41;;;-9.16;100.00
5062;BME280;2351;50.812;12.872;2023-12-04T04:37:36;98099.97;;;-9.12;100.00
5062;BME280;2351;50.812;12.872;2023-12-04T04:40:08;98091.41;;;-9.05;100.00
5062;BME280;2351;50.812;12.872;2023-12-04T04:42:41;98093.06;;;-9.01;100.00
5062;BME280;2351;50.812;12.872;2023-12-04T04:45:13;98093.88;;;-8.93;100.00
5062;BME280;2351;50.812;12.872;2023-12-04T04:47:45;98087.00;;;-8.89;100.00
5062;BME280;2351;50.812;12.872;2023-12-04T04:50:16;98085.28;;;-8.84;100.00
5062;BME280;2351;50.812;12.872;2023-12-04T04:52:48;98080.97;;;-8.79;100.00
5062;BME280;2351;50.812;12.872;2023-12-04T04:55:20;98072.41;;;-8.74;100.00
5062;BME280;2351;50.812;12.872;2023-12-04T04:57:53;98068.09;;;-8.71;100.00
5062;BME280;2351;50.812;12.872;2023-12-04T05:00:24;98062.06;;;-8.65;100.00
5062;BME280;2351;50.812;12.872;2023-12-04T05:02:56;98056.06;;;-8.64;100.00
5062;BME280;2351;50.812;12.872;2023-12-04T05:05:28;98055.16;;;-8.57;100.00
5062;BME280;2351;50.812;12.872;2023-12-04T05:08:00;98056.00;;;-8.52;100.00
5062;BME280;2351;50.812;12.872;2023-12-04T05:10:31;98049.09;;;-8.48;100.00
5062;BME280;2351;50.812;12.872;2023-12-04T05:13:05;98038.75;;;-8.43;100.00
5062;BME280;2351;50.812;12.872;2023-12-04T05:15:36;98028.47;;;-8.39;100.00
5062;BME280;2351;50.812;12.872;2023-12-04T05:18:08;98019.88;;;-8.36;100.00
5062;BME280;2351;50.812;12.872;2023-12-04T05:20:40;98025.00;;;-8.33;100.00
5062;BME280;2351;50.812;12.872;2023-12-04T05:23:11;98013.00;;;-8.34;100.00
5062;BME280;2351;50.812;12.872;2023-12-04T05:25:43;98019.00;;;-8.35;100.00
5062;BME280;2351;50.812;12.872;2023-12-04T05:28:16;98013.06;;;-8.40;100.00
5062;BME280;2351;50.812;12.872;2023-12-04T05:30:48;98010.53;;;-8.47;100.00
5062;BME280;2351;50.812;12.872;2023-12-04T05:33:20;98005.50;;;-8.53;100.00
5062;BME280;2351;50.812;12.872;2023-12-04T05:35:52;98013.28;;;-8.60;100.00
5062;BME280;2351;50.812;12.872;2023-12-04T05:38:24;98001.31;;;-8.66;100.00
5062;BME280;2351;50.812;12.872;2023-12-04T05:40:56;98006.50;;;-8.71;100.00
5062;BME280;2351;50.812;12.872;2023-12-04T05:43:29;98000.56;;;-8.78;100.00
5062;BME280;2351;50.812;12.872;2023-12-04T05:46:00;97992.03;;;-8.80;100.00
5062;BME280;2351;50.812;12.872;2023-12-04T05:48:32;98005.72;;;-8.81;100.00
5062;BME280;2351;50.812;12.872;2023-12-04T05:51:04;98004.84;;;-8.81;100.00
5062;BME280;2351;50.812;12.872;2023-12-04T05:53:36;97998.88;;;-8.82;100.00
5062;BME280;2351;50.812;12.872;2023-12-04T05:56:09;98000.59;;;-8.81;100.00
5062;BME280;2351;50.812;12.872;2023-12-04T05:58:42;97991.16;;;-8.80;100.00
5062;BME280;2351;50.812;12.872;2023-12-04T06:01:14;97993.72;;;-8.79;100.00
5062;BME280;2351;50.812;12.872;2023-12-04T06:03:46;97996.28;;;-8.80;100.00
5062;BME280;2351;50.812;12.872;2023-12-04T06:06:18;97983.47;;;-8.82;100.00
5062;BME280;2351;50.812;12.872;2023-12-04T06:08:49;97977.50;;;-8.84;100.00
5062;BME280;2351;50.812;12.872;2023-12-04T06:11:21;97975.81;;;-8.85;100.00
5062;BME280;2351;50.812;12.872;2023-12-04T06:13:54;97980.09;;;-8.85;100.00
5062;BME280;2351;50.812;12.872;2023-12-04T06:16:26;97974.97;;;-8.87;100.00
5062;BME280;2351;50.812;12.872;2023-12-04T06:18:58;97967.28;;;-8.85;100.00
5062;BME280;2351;50.812;12.872;2023-12-04T06:21:29;97959.56;;;-8.84;100.00
5062;BME280;2351;50.812;12.872;2023-12-04T06:24:01;97962.97;;;-8.82;100.00
5062;BME280;2351;50.812;12.872;2023-12-04T06:26:34;97967.22;;;-8.78;100.00
5062;BME280;2351;50.812;12.872;2023-12-04T06:29:09;97956.94;;;-8.78;100.00
5062;BME280;2351;50.812;12.872;2023-12-04T06:31:42;97965.53;;;-8.83;100.00
5062;BME280;2351;50.812;12.872;2023-12-04T06:34:14;97962.16;;;-8.88;100.00
5062;BME280;2351;50.812;12.872;2023-12-04T06:36:46;97962.16;;;-8.88;100.00
5062;BME280;2351;50.812;12.872;2023-12-04T06:39:19;97957.88;;;-8.91;100.00
5062;BME280;2351;50.812;12.872;2023-12-04T06:41:51;97959.59;;;-8.93;100.00
5062;BME280;2351;50.812;12.872;2023-12-04T06:44:25;97958.75;;;-8.90;100.00
5062;BME280;2351;50.812;12.872;2023-12-04T06:46:58;97959.59;;;-8.93;100.00
5062;BME280;2351;50.812;12.872;2023-12-04T06:49:32;97958.75;;;-8.90;100.00
5062;BME280;2351;50.812;12.872;2023-12-04T06:52:05;97953.59;;;-8.87;100.00
5062;BME280;2351;50.812;12.872;2023-12-04T06:54:36;97949.28;;;-8.84;100.00
5062;BME280;2351;50.812;12.872;2023-12-04T06:57:08;97955.25;;;-8.82;100.00
5062;BME280;2351;50.812;12.872;2023-12-04T06:59:41;97945.88;;;-8.86;100.00
5062;BME280;2351;50.812;12.872;2023-12-04T07:02:13;97941.59;;;-8.84;100.00
5062;BME280;2351;50.812;12.872;2023-12-04T07:04:45;97944.03;;;-8.71;100.00
5062;BME280;2351;50.812;12.872;2023-12-04T07:07:17;97943.97;;;-8.62;100.00
5062;BME280;2351;50.812;12.872;2023-12-04T07:09:49;97943.03;;;-8.53;100.00
5062;BME280;2351;50.812;12.872;2023-12-04T07:12:21;97942.06;;;-8.48;100.00
5062;BME280;2351;50.812;12.872;2023-12-04T07:14:54;97938.63;;;-8.43;100.00
5062;BME280;2351;50.812;12.872;2023-12-04T07:17:25;97936.88;;;-8.38;100.00
5062;BME280;2351;50.812;12.872;2023-12-04T07:19:57;97930.81;;;-8.31;100.00
5062;BME280;2351;50.812;12.872;2023-12-04T07:22:29;97935.00;;;-8.24;100.00
5062;BME280;2351;50.812;12.872;2023-12-04T07:25:01;97924.59;;;-8.11;100.00
5062;BME280;2351;50.812;12.872;2023-12-04T07:27:33;97915.78;;;-7.90;100.00
5062;BME280;2351;50.812;12.872;2023-12-04T07:30:07;97911.22;;;-7.68;100.00
5062;BME280;2351;50.812;12.872;2023-12-04T07:32:39;97902.69;;;-7.12;100.00
5062;BME280;2351;50.812;12.872;2023-12-04T07:35:11;97905.47;;;-6.71;100.00
5062;BME280;2351;50.812;12.872;2023-12-04T07:37:43;97897.75;;;-6.23;100.00
5062;BME280;2351;50.812;12.872;2023-12-04T07:40:15;97892.75;;;-5.49;100.00
5062;BME280;2351;50.812;12.872;2023-12-04T07:42:47;97893.84;;;-5.20;100.00
5062;BME280;2351;50.812;12.872;2023-12-04T07:45:20;97894.91;;;-4.94;100.00
5062;BME280;2351;50.812;12.872;2023-12-04T07:47:51;97903.19;;;-4.79;100.00
5062;BME280;2351;50.812;12.872;2023-12-04T07:50:23;97906.59;;;-4.44;100.00
5062;BME280;2351;50.812;12.872;2023-12-04T07:52:55;97901.81;;;-4.27;100.00
5062;BME280;2351;50.812;12.872;2023-12-04T07:55:27;97908.53;;;-4.19;100.00
5062;BME280;2351;50.812;12.872;2023-12-04T07:57:59;97897.84;;;-4.07;100.00
5062;BME280;2351;50.812;12.872;2023-12-04T08:00:32;97908.91;;;-4.00;100.00
5062;BME280;2351;50.812;12.872;2023-12-04T08:03:03;97908.84;;;-3.99;100.00
5062;BME280;2351;50.812;12.872;2023-12-04T08:05:35;97907.56;;;-3.84;100.00
5062;BME280;2351;50.812;12.872;2023-12-04T08:08:07;97901.03;;;-3.66;100.00
5062;BME280;2351;50.812;12.872;2023-12-04T08:10:38;97894.19;;;-3.68;100.00
5062;BME280;2351;50.812;12.872;2023-12-04T08:13:10;97894.09;;;-3.65;100.00
5062;BME280;2351;50.812;12.872;2023-12-04T08:15:43;97899.84;;;-3.55;100.00
5062;BME280;2351;50.812;12.872;2023-12-04T08:18:15;97893.50;;;-3.45;100.00
5062;BME280;2351;50.812;12.872;2023-12-04T08:20:47;97894.03;;;-3.34;100.00
5062;BME280;2351;50.812;12.872;2023-12-04T08:23:19;97891.19;;;-3.26;100.00
5062;BME280;2351;50.812;12.872;2023-12-04T08:25:50;97888.16;;;-3.12;100.00
5062;BME280;2351;50.812;12.872;2023-12-04T08:28:22;97894.94;;;-3.08;100.00
5062;BME280;2351;50.812;12.872;2023-12-04T08:30:55;97888.88;;;-3.07;100.00
5062;BME280;2351;50.812;12.872;2023-12-04T08:33:27;97886.66;;;-2.91;100.00
5062;BME280;2351;50.812;12.872;2023-12-04T08:35:58;97879.31;;;-2.78;100.00
5062;BME280;2351;50.812;12.872;2023-12-04T08:38:30;97885.78;;;-2.64;100.00
5062;BME280;2351;50.812;12.872;2023-12-04T08:41:03;97880.22;;;-2.79;98.80
5062;BME280;2351;50.812;12.872;2023-12-04T08:43:35;97882.09;;;-2.84;92.64
5062;BME280;2351;50.812;12.872;2023-12-04T08:46:12;97878.97;;;-2.67;98.62
5062;BME280;2351;50.812;12.872;2023-12-04T08:48:43;97871.75;;;-2.59;95.90
5062;BME280;2351;50.812;12.872;2023-12-04T08:51:16;97870.41;;;-2.44;97.68
5062;BME280;2351;50.812;12.872;2023-12-04T08:53:48;97883.84;;;-2.32;96.55
5062;BME280;2351;50.812;12.872;2023-12-04T08:56:19;97877.16;;;-2.39;91.32
5062;BME280;2351;50.812;12.872;2023-12-04T08:58:51;97877.41;;;-2.22;97.12
5062;BME280;2351;50.812;12.872;2023-12-04T09:01:24;97880.75;;;-2.18;92.63
5062;BME280;2351;50.812;12.872;2023-12-04T09:03:56;97875.25;;;-2.09;94.30
5062;BME280;2351;50.812;12.872;2023-12-04T09:06:27;97869.56;;;-1.95;94.86
5062;BME280;2351;50.812;12.872;2023-12-04T09:08:59;97857.47;;;-1.96;93.05
5062;BME280;2351;50.812;12.872;2023-12-04T09:11:31;97854.50;;;-1.85;93.88
5062;BME280;2351;50.812;12.872;2023-12-04T09:14:02;97863.47;;;-1.94;90.81
5062;BME280;2351;50.812;12.872;2023-12-04T09:16:35;97851.94;;;-1.87;92.37
5062;BME280;2351;50.812;12.872;2023-12-04T09:19:07;97857.66;;;-2.01;85.84
5062;BME280;2351;50.812;12.872;2023-12-04T09:21:39;97861.09;;;-2.00;85.97
5062;BME280;2351;50.812;12.872;2023-12-04T09:24:11;97860.50;;;-1.85;86.59
5062;BME280;2351;50.812;12.872;2023-12-04T09:26:44;97867.91;;;-1.74;87.25
5062;BME280;2351;50.812;12.872;2023-12-04T09:29:15;97858.28;;;-1.70;82.37
5062;BME280;2351;50.812;12.872;2023-12-04T09:31:49;97859.44;;;-1.55;84.26
5062;BME280;2351;50.812;12.872;2023-12-04T09:34:21;97866.94;;;-1.25;85.28
5062;BME280;2351;50.812;12.872;2023-12-04T09:36:53;97859.00;;;-1.00;86.17
5062;BME280;2351;50.812;12.872;2023-12-04T09:39:25;97865.06;;;-0.79;83.77
5062;BME280;2351;50.812;12.872;2023-12-04T09:41:59;97862.91;;;-0.89;79.38
5062;BME280;2351;50.812;12.872;2023-12-04T09:44:34;97865.22;;;-0.61;80.94
5062;BME280;2351;50.812;12.872;2023-12-04T09:47:09;97856.25;;;-0.33;80.45
5062;BME280;2351;50.812;12.872;2023-12-04T09:49:43;97857.22;;;-0.36;77.86
5062;BME280;2351;50.812;12.872;2023-12-04T09:52:15;97852.66;;;-0.72;71.24
5062;BME280;2351;50.812;12.872;2023-12-04T09:54:48;97857.25;;;-0.56;74.66
5062;BME280;2351;50.812;12.872;2023-12-04T09:57:21;97852.63;;;-0.70;70.37
5062;BME280;2351;50.812;12.872;2023-12-04T09:59:55;97840.88;;;-0.39;73.22
5062;BME280;2351;50.812;12.872;2023-12-04T10:02:28;97843.53;;;-0.20;71.59
5062;BME280;2351;50.812;12.872;2023-12-04T10:05:01;97840.94;;;-0.20;72.33
5062;BME280;2351;50.812;12.872;2023-12-04T10:07:35;97835.13;;;-0.87;69.76
5062;BME280;2351;50.812;12.872;2023-12-04T10:10:08;97832.19;;;-0.59;70.69
5062;BME280;2351;50.812;12.872;2023-12-04T10:12:40;97825.44;;;-0.84;68.54
5062;BME280;2351;50.812;12.872;2023-12-04T10:15:12;97826.28;;;-0.83;68.29
5062;BME280;2351;50.812;12.872;2023-12-04T10:17:45;97815.44;;;-0.72;69.52
5062;BME280;2351;50.812;12.872;2023-12-04T10:20:17;97809.06;;;-0.65;69.79
5062;BME280;2351;50.812;12.872;2023-12-04T10:22:54;97801.31;;;-0.67;69.19
5062;BME280;2351;50.812;12.872;2023-12-04T10:25:27;97809.31;;;-0.92;68.54
5062;BME280;2351;50.812;12.872;2023-12-04T10:28:08;97806.25;;;-1.02;67.84
5062;BME280;2351;50.812;12.872;2023-12-04T10:30:40;97787.69;;;-0.93;68.29
5062;BME280;2351;50.812;12.872;2023-12-04T10:33:14;97782.59;;;-0.96;68.54
5062;BME280;2351;50.812;12.872;2023-12-04T10:35:46;97776.31;;;-0.90;68.94
5062;BME280;2351;50.812;12.872;2023-12-04T10:38:18;97777.94;;;-0.87;68.30
5062;BME280;2351;50.812;12.872;2023-12-04T10:40:50;97779.63;;;-0.86;68.88
5062;BME280;2351;50.812;12.872;2023-12-04T10:43:22;97781.19;;;-0.82;68.85
5062;BME280;2351;50.812;12.872;2023-12-04T10:45:54;97768.44;;;-0.88;67.79
5062;BME280;2351;50.812;12.872;2023-12-04T10:48:28;97769.03;;;-0.82;66.87
5062;BME280;2351;50.812;12.872;2023-12-04T10:50:59;97755.22;;;-0.82;67.51
5062;BME280;2351;50.812;12.872;2023-12-04T10:53:31;97753.38;;;-0.80;66.47
5062;BME280;2351;50.812;12.872;2023-12-04T10:56:05;97747.91;;;-0.74;67.70
5062;BME280;2351;50.812;12.872;2023-12-04T10:58:39;97741.00;;;-0.75;67.18
5062;BME280;2351;50.812;12.872;2023-12-04T11:01:13;97731.09;;;-0.86;64.93
5062;BME280;2351;50.812;12.872;2023-12-04T11:03:48;97731.78;;;-0.62;65.43
5062;BME280;2351;50.812;12.872;2023-12-04T11:06:21;97729.53;;;-0.69;66.18
5062;BME280;2351;50.812;12.872;2023-12-04T11:08:56;97728.09;;;-0.77;64.50
5062;BME280;2351;50.812;12.872;2023-12-04T11:11:32;97716.53;;;-0.69;65.69
5062;BME280;2351;50.812;12.872;2023-12-04T11:14:08;97716.63;;;-0.52;66.11
5062;BME280;2351;50.812;12.872;2023-12-04T11:16:46;97711.47;;;-0.53;66.96
5062;BME280;2351;50.812;12.872;2023-12-04T11:19:23;97708.59;;;-0.47;65.55
5062;BME280;2351;50.812;12.872;2023-12-04T11:21:59;97706.44;;;-0.56;63.55
5062;BME280;2351;50.812;12.872;2023-12-04T11:24:32;97707.91;;;-0.51;65.33
5062;BME280;2351;50.812;12.872;2023-12-04T11:27:04;97690.91;;;-0.39;66.26
5062;BME280;2351;50.812;12.872;2023-12-04T11:29:36;97687.81;;;-0.28;65.90
5062;BME280;2351;50.812;12.872;2023-12-04T11:32:14;97694.13;;;-0.14;65.51
5062;BME280;2351;50.812;12.872;2023-12-04T11:34:51;97675.91;;;0.05;67.19
5062;BME280;2351;50.812;12.872;2023-12-04T11:37:26;97679.16;;;-0.09;63.28
5062;BME280;2351;50.812;12.872;2023-12-04T11:40:02;97669.28;;;-0.03;64.19
5062;BME280;2351;50.812;12.872;2023-12-04T11:42:35;97674.78;;;-0.09;63.50
5062;BME280;2351;50.812;12.872;2023-12-04T11:45:10;97669.63;;;0.09;64.09
5062;BME280;2351;50.812;12.872;2023-12-04T11:47:51;97673.84;;;0.11;64.01
5062;BME280;2351;50.812;12.872;2023-12-04T11:50:28;97672.69;;;0.17;64.64
5062;BME280;2351;50.812;12.872;2023-12-04T11:53:02;97661.38;;;0.18;63.85
5062;BME280;2351;50.812;12.872;2023-12-04T11:55:35;97658.84;;;0.17;63.96
5062;BME280;2351;50.812;12.872;2023-12-04T11:58:08;97663.38;;;0.31;64.61
5062;BME280;2351;50.812;12.872;2023-12-04T12:00:42;97660.94;;;0.27;63.08
5062;BME280;2351;50.812;12.872;2023-12-04T12:03:14;97661.16;;;0.40;63.78
5062;BME280;2351;50.812;12.872;2023-12-04T12:05:48;97663.81;;;0.21;62.32
5062;BME280;2351;50.812;12.872;2023-12-04T12:08:22;97658.00;;;0.16;61.74
5062;BME280;2351;50.812;12.872;2023-12-04T12:10:55;97655.47;;;0.14;62.17
5062;BME280;2351;50.812;12.872;2023-12-04T12:13:27;97646.97;;;0.11;61.70
5062;BME280;2351;50.812;12.872;2023-12-04T12:15:59;97639.91;;;0.13;62.06
5062;BME280;2351;50.812;12.872;2023-12-04T12:18:34;97630.78;;;0.04;61.13
5062;BME280;2351;50.812;12.872;2023-12-04T12:21:08;97634.13;;;0.08;61.48
5062;BME280;2351;50.812;12.872;2023-12-04T12:23:39;97631.94;;;-0.02;60.28
5062;BME280;2351;50.812;12.872;2023-12-04T12:26:11;97632.53;;;-0.14;61.36
5062;BME280;2351;50.812;12.872;2023-12-04T12:28:43;97632.53;;;-0.14;61.51
5062;BME280;2351;50.812;12.872;2023-12-04T12:31:16;97623.97;;;-0.35;61.00
5062;BME280;2351;50.812;12.872;2023-12-04T12:33:49;97621.00;;;-0.27;60.33
5062;BME280;2351;50.812;12.872;2023-12-04T12:36:22;97617.91;;;-0.17;60.96
5062;BME280;2351;50.812;12.872;2023-12-04T12:38:54;97626.34;;;-0.11;61.75
5062;BME280;2351;50.812;12.872;2023-12-04T12:41:26;97620.31;;;-0.12;61.58
5062;BME280;2351;50.812;12.872;2023-12-04T12:43:58;97609.66;;;-0.07;61.95
5062;BME280;2351;50.812;12.872;2023-12-04T12:46:33;97603.31;;;-0.02;62.34
5062;BME280;2351;50.812;12.872;2023-12-04T12:49:05;97601.56;;;-0.01;61.83
5062;BME280;2351;50.812;12.872;2023-12-04T12:51:40;97591.50;;;-0.09;60.95
5062;BME280;2351;50.812;12.872;2023-12-04T12:54:12;97588.47;;;-0.17;61.10
5062;BME280;2351;50.812;12.872;2023-12-04T12:56:44;97590.16;;;-0.16;62.02
5062;BME280;2351;50.812;12.872;2023-12-04T12:59:16;97595.72;;;-0.24;61.68
5062;BME280;2351;50.812;12.872;2023-12-04T13:01:48;97592.19;;;-0.23;61.72
5062;BME280;2351;50.812;12.872;2023-12-04T13:04:20;97587.00;;;-0.23;61.65
5062;BME280;2351;50.812;12.872;2023-12-04T13:06:53;97579.75;;;-0.16;62.14
5062;BME280;2351;50.812;12.872;2023-12-04T13:09:25;97578.69;;;-0.12;62.36
5062;BME280;2351;50.812;12.872;2023-12-04T13:11:57;97569.88;;;-0.09;62.40
5062;BME280;2351;50.812;12.872;2023-12-04T13:14:30;97563.75;;;-0.08;62.33
5062;BME280;2351;50.812;12.872;2023-12-04T13:17:01;97563.81;;;-0.10;62.42
5062;BME280;2351;50.812;12.872;2023-12-04T13:19:33;97558.91;;;-0.16;62.51
5062;BME280;2351;50.812;12.872;2023-12-04T13:22:08;97550.50;;;-0.21;62.24
5062;BME280;2351;50.812;12.872;2023-12-04T13:24:39;97550.63;;;-0.24;62.99
5062;BME280;2351;50.812;12.872;2023-12-04T13:27:12;97546.50;;;-0.28;62.38
5062;BME280;2351;50.812;12.872;2023-12-04T13:29:44;97539.69;;;-0.31;62.61